TimeCST,TemperatureF,Dew PointF,Humidity,Sea Level PressureIn,VisibilityMPH,Wind Direction,Wind SpeedMPH,Gust SpeedMPH,PrecipitationIn,Events,Conditions,WindDirDegrees,DateUTC
12:56 AM,51.1,48.9,92,29.93,10.0,North,6.9,-,N/A,,Mostly Cloudy,360,2012-11-06 06:56:00
1:45 AM,50.0,48.2,94,29.93,10.0,NNW,3.5,-,N/A,,Scattered Clouds,340,2012-11-06 07:45:00
1:56 AM,48.9,48.0,97,29.93,8.0,NNW,3.5,-,N/A,,Scattered Clouds,340,2012-11-06 07:56:00
2:56 AM,48.0,46.0,93,29.95,5.0,NNW,5.8,-,N/A,,Partly Cloudy,330,2012-11-06 08:56:00
3:03 AM,48.2,46.4,93,29.95,7.0,NNW,8.1,-,N/A,,Scattered Clouds,340,2012-11-06 09:03:00
3:31 AM,48.2,46.4,93,29.96,5.0,NNW,9.2,-,N/A,,Overcast,340,2012-11-06 09:31:00
3:56 AM,50.0,48.0,93,29.96,5.0,NNW,11.5,-,N/A,,Overcast,330,2012-11-06 09:56:00
4:21 AM,50.0,46.4,87,29.97,6.0,NNW,10.4,-,N/A,,Overcast,340,2012-11-06 10:21:00
4:56 AM,50.0,46.9,89,29.97,6.0,NNW,9.2,-,N/A,,Overcast,340,2012-11-06 10:56:00
5:50 AM,50.0,46.4,87,29.99,8.0,North,11.5,-,N/A,,Mostly Cloudy,350,2012-11-06 11:50:00
5:56 AM,50.0,46.9,89,29.99,8.0,North,9.2,-,N/A,,Mostly Cloudy,350,2012-11-06 11:56:00
6:23 AM,50.0,46.4,87,30.01,8.0,NNW,10.4,17.3,N/A,,Overcast,340,2012-11-06 12:23:00
6:56 AM,48.9,46.0,90,30.01,8.0,North,10.4,-,N/A,,Mostly Cloudy,350,2012-11-06 12:56:00
7:56 AM,50.0,46.0,86,30.02,8.0,North,8.1,-,N/A,,Overcast,360,2012-11-06 13:56:00
8:56 AM,52.0,46.0,80,30.03,8.0,North,10.4,-,N/A,,Mostly Cloudy,360,2012-11-06 14:56:00
9:20 AM,53.6,46.4,77,30.03,10.0,North,11.5,-,N/A,,Scattered Clouds,360,2012-11-06 15:20:00
9:47 AM,53.6,46.4,77,30.03,10.0,NNW,11.5,-,N/A,,Mostly Cloudy,340,2012-11-06 15:47:00
9:56 AM,55.0,46.0,72,30.03,10.0,NW,8.1,16.1,N/A,,Overcast,320,2012-11-06 15:56:00
10:24 AM,55.4,46.4,72,30.03,10.0,North,13.8,-,N/A,,Scattered Clouds,350,2012-11-06 16:24:00
10:56 AM,57.9,46.0,65,30.02,10.0,NNW,12.7,17.3,N/A,,Scattered Clouds,330,2012-11-06 16:56:00
11:56 AM,60.1,46.0,60,29.99,10.0,NNW,10.4,-,N/A,,Partly Cloudy,340,2012-11-06 17:56:00
12:56 PM,61.0,46.0,58,29.97,10.0,WNW,11.5,-,N/A,,Partly Cloudy,300,2012-11-06 18:56:00
1:56 PM,62.1,46.9,58,29.97,10.0,NW,13.8,18.4,N/A,,Scattered Clouds,320,2012-11-06 19:56:00
2:56 PM,59.0,45.0,60,29.98,10.0,NW,10.4,19.6,N/A,,Scattered Clouds,320,2012-11-06 20:56:00
3:56 PM,59.0,45.0,60,29.98,10.0,NW,6.9,-,N/A,,Scattered Clouds,320,2012-11-06 21:56:00
4:56 PM,55.9,45.0,67,29.99,10.0,NW,6.9,-,N/A,,Mostly Cloudy,320,2012-11-06 22:56:00
5:56 PM,52.0,44.1,74,30.02,10.0,NW,5.8,-,N/A,,Scattered Clouds,320,2012-11-06 23:56:00
6:56 PM,50.0,44.1,80,30.04,10.0,NW,4.6,-,N/A,,Partly Cloudy,320,2012-11-07 00:56:00
7:56 PM,48.0,44.1,86,30.04,10.0,West,3.5,-,N/A,,Partly Cloudy,280,2012-11-07 01:56:00
8:56 PM,46.0,43.0,89,30.06,10.0,West,3.5,-,N/A,,Partly Cloudy,260,2012-11-07 02:56:00
9:56 PM,45.0,42.1,90,30.05,10.0,West,3.5,-,N/A,,Scattered Clouds,270,2012-11-07 03:56:00
10:56 PM,43.0,41.0,93,30.04,9.0,West,3.5,-,N/A,,Partly Cloudy,280,2012-11-07 04:56:00
11:56 PM,45.0,42.1,90,30.04,10.0,WNW,4.6,-,N/A,,Clear,300,2012-11-07 05:56:00